Time;durP1;ratioP1;P1;durP2;ratioP2;P2;SDS_P1;SDS_P2;PMS_P1;PMS_P2;Temp;Humidity;BMP_temperature;BMP_pressure;BME280_temperature;BME280_humidity;BME280_pressure;Samples;Min_cycle;Max_cycle;Signal;HPM_P1;HPM_P2
2022/05/18 00:02:00;;;;;;;10.50;9.53;;;16.30;99.90;;;;;;5109783;27;20229;-65
2022/05/18 00:04:29;;;;;;;9.70;8.90;;;16.30;99.90;;;;;;5105983;27;20263;-65
2022/05/18 00:06:57;;;;;;;10.20;9.30;;;16.30;99.90;;;;;;5106440;27;20592;-65
2022/05/18 00:09:25;;;;;;;8.20;7.50;;;16.30;99.90;;;;;;5107249;27;20236;-65
2022/05/18 00:11:53;;;;;;;9.40;8.60;;;16.40;99.90;;;;;;5106435;27;20229;-65
2022/05/18 00:14:21;;;;;;;10.93;9.83;;;16.30;99.90;;;;;;5104274;27;20324;-65
2022/05/18 00:16:50;;;;;;;9.20;8.30;;;16.30;99.90;;;;;;5105380;27;20237;-65
2022/05/18 00:19:19;;;;;;;10.00;9.10;;;16.30;99.90;;;;;;5107149;27;20261;-65
2022/05/18 00:21:47;;;;;;;9.67;8.80;;;16.30;99.90;;;;;;5107616;27;20262;-65
2022/05/18 00:24:15;;;;;;;10.50;9.50;;;16.20;99.90;;;;;;5106116;27;20238;-65
2022/05/18 00:26:43;;;;;;;10.20;9.33;;;16.20;99.90;;;;;;5105000;27;20244;-65
2022/05/18 00:29:11;;;;;;;9.30;8.40;;;16.20;99.90;;;;;;5105650;27;20290;-65
2022/05/18 00:31:40;;;;;;;9.00;8.20;;;16.20;99.90;;;;;;5104125;27;20244;-65
2022/05/18 00:34:10;;;;;;;9.83;9.00;;;16.20;99.90;;;;;;5101735;27;20226;-65
2022/05/18 00:36:38;;;;;;;8.00;7.40;;;16.20;99.90;;;;;;5107883;27;20222;-65
2022/05/18 00:39:06;;;;;;;8.77;8.07;;;16.20;99.90;;;;;;5105742;27;20237;-65
2022/05/18 00:41:35;;;;;;;9.30;8.50;;;16.20;99.90;;;;;;5107330;27;20242;-65
2022/05/18 00:44:03;;;;;;;9.27;8.47;;;16.10;99.90;;;;;;5105763;27;20248;-65
2022/05/18 00:46:31;;;;;;;9.50;8.67;;;16.10;99.90;;;;;;5105808;27;20234;-65
2022/05/18 00:49:03;;;;;;;9.17;8.37;;;16.10;99.90;;;;;;5105278;27;20299;-65
2022/05/18 00:51:34;;;;;;;9.33;8.43;;;16.10;99.90;;;;;;5104874;27;20238;-65
2022/05/18 00:54:09;;;;;;;8.77;8.07;;;16.10;99.90;;;;;;5105372;27;20309;-65
2022/05/18 00:56:43;;;;;;;10.17;9.20;;;16.10;99.90;;;;;;5103163;28;20226;-65
2022/05/18 00:59:14;;;;;;;9.87;9.07;;;16.00;99.90;;;;;;5106159;27;20241;-65
2022/05/18 01:01:43;;;;;;;10.00;9.00;;;16.00;99.90;;;;;;5105510;27;20328;-65
2022/05/18 01:04:14;;;;;;;10.20;9.30;;;16.10;99.90;;;;;;5104460;27;20241;-65
2022/05/18 01:06:47;;;;;;;9.67;8.87;;;16.00;99.90;;;;;;5106236;28;21494;-65
2022/05/18 01:09:19;;;;;;;10.13;9.30;;;16.00;99.90;;;;;;5107103;27;20243;-65
2022/05/18 01:11:48;;;;;;;10.17;9.30;;;16.00;99.90;;;;;;5103232;28;21625;-65
2022/05/18 01:14:22;;;;;;;10.77;9.87;;;16.00;99.90;;;;;;5104357;28;20233;-65
2022/05/18 01:16:51;;;;;;;11.47;10.47;;;16.00;99.90;;;;;;5105352;28;20256;-65
2022/05/18 01:19:27;;;;;;;12.07;11.07;;;15.90;99.90;;;;;;5105171;28;20246;-65
2022/05/18 01:22:08;;;;;;;12.00;10.87;;;15.90;99.90;;;;;;5106826;28;20238;-65
2022/05/18 01:24:43;;;;;;;12.43;11.33;;;15.90;99.90;;;;;;5105655;28;20237;-65
2022/05/18 01:27:12;;;;;;;12.70;11.50;;;15.90;99.90;;;;;;5106163;28;20231;-65
2022/05/18 01:29:40;;;;;;;12.30;11.10;;;15.90;99.90;;;;;;5107430;28;20265;-65
2022/05/18 01:32:14;;;;;;;12.73;11.53;;;15.90;99.90;;;;;;5105484;28;20831;-65
2022/05/18 01:34:42;;;;;;;11.33;10.23;;;15.80;99.90;;;;;;5105195;27;20252;-65
2022/05/18 01:37:11;;;;;;;11.57;10.50;;;15.80;99.90;;;;;;5109091;27;20233;-64
2022/05/18 01:39:45;;;;;;;11.10;10.10;;;15.80;99.90;;;;;;5110775;27;20237;-65
2022/05/18 01:42:25;;;;;;;11.17;10.17;;;15.70;99.90;;;;;;5109465;27;20243;-65
2022/05/18 01:44:53;;;;;;;11.40;10.20;;;15.70;99.90;;;;;;5109272;27;20245;-65
2022/05/18 01:47:21;;;;;;;10.63;9.63;;;15.70;99.90;;;;;;5110037;27;20229;-65
2022/05/18 01:49:51;;;;;;;10.80;9.80;;;15.70;99.90;;;;;;5111091;27;20225;-65
2022/05/18 01:52:20;;;;;;;10.73;9.73;;;15.60;99.90;;;;;;5107317;27;20685;-65
2022/05/18 01:54:49;;;;;;;9.23;8.37;;;15.60;99.90;;;;;;5108286;27;20241;-65
2022/05/18 01:57:18;;;;;;;10.40;9.37;;;15.60;99.90;;;;;;5109202;27;20229;-65
2022/05/18 01:59:46;;;;;;;9.63;8.83;;;15.60;99.90;;;;;;5109416;27;20229;-65
2022/05/18 02:02:14;;;;;;;9.37;8.47;;;15.60;99.90;;;;;;5108231;27;20251;-65
2022/05/18 02:04:43;;;;;;;8.70;7.90;;;15.50;99.90;;;;;;5111898;27;21377;-65
2022/05/18 02:07:13;;;;;;;8.73;7.90;;;15.50;99.90;;;;;;5110654;27;20253;-65
2022/05/18 02:09:42;;;;;;;9.57;7.40;;;15.50;99.90;;;;;;5108033;27;20808;-65
2022/05/18 02:12:12;;;;;;;8.07;7.27;;;15.50;99.90;;;;;;5109060;27;20253;-65
2022/05/18 02:14:41;;;;;;;7.10;6.50;;;15.50;99.90;;;;;;5108494;27;20229;-65
2022/05/18 02:17:09;;;;;;;8.27;6.63;;;15.50;99.90;;;;;;5109712;27;20332;-65
2022/05/18 02:19:38;;;;;;;6.70;6.10;;;15.50;99.90;;;;;;5109712;27;20241;-65
2022/05/18 02:22:06;;;;;;;6.60;6.00;;;15.40;99.90;;;;;;5110896;27;20650;-65
2022/05/18 02:24:34;;;;;;;6.50;6.00;;;15.30;99.90;;;;;;5108302;27;20240;-65
2022/05/18 02:27:02;;;;;;;6.20;5.53;;;15.30;99.90;;;;;;5108666;27;20245;-65
2022/05/18 02:29:30;;;;;;;6.17;5.50;;;15.20;99.90;;;;;;5107739;27;20245;-64
2022/05/18 02:32:00;;;;;;;6.23;5.60;;;15.20;99.90;;;;;;5107748;27;20312;-65
2022/05/18 02:34:28;;;;;;;6.03;5.50;;;15.10;99.90;;;;;;5109082;27;20227;-65
2022/05/18 02:36:56;;;;;;;5.40;4.73;;;15.10;99.90;;;;;;5109372;27;20290;-65
2022/05/18 02:39:24;;;;;;;5.43;4.93;;;15.10;99.90;;;;;;5107890;27;20721;-65
2022/05/18 02:41:53;;;;;;;7.30;5.83;;;15.00;99.90;;;;;;5108226;27;20673;-65
2022/05/18 02:44:21;;;;;;;8.37;5.67;;;15.00;99.90;;;;;;5108313;27;20240;-65
2022/05/18 02:46:49;;;;;;;7.77;5.73;;;15.00;99.90;;;;;;5109851;27;20581;-65
2022/05/18 02:49:19;;;;;;;7.47;5.60;;;14.90;99.90;;;;;;5109516;27;20234;-64
2022/05/18 02:51:47;;;;;;;6.60;6.00;;;14.90;99.90;;;;;;5109373;27;20249;-64
2022/05/18 02:57:03;;;;;;;9.40;6.67;;;15.00;99.90;;;;;;5106927;27;20245;-64
2022/05/18 02:59:35;;;;;;;9.23;7.47;;;14.90;99.90;;;;;;5107302;27;20742;-65
2022/05/18 03:02:04;;;;;;;8.77;7.80;;;14.90;99.90;;;;;;5108887;27;20312;-65
2022/05/18 03:04:34;;;;;;;10.13;7.90;;;14.90;99.90;;;;;;5105246;27;20758;-64
2022/05/18 03:07:02;;;;;;;8.47;7.27;;;14.90;99.90;;;;;;5106510;27;20286;-65
2022/05/18 03:09:30;;;;;;;9.07;8.17;;;14.90;99.90;;;;;;5107179;27;20599;-65
2022/05/18 03:11:59;;;;;;;8.80;7.90;;;14.80;99.90;;;;;;5106473;27;20242;-64
2022/05/18 03:14:27;;;;;;;8.40;7.60;;;14.80;99.90;;;;;;5104301;27;20230;-65
2022/05/18 03:16:55;;;;;;;8.20;7.27;;;14.80;99.90;;;;;;5108324;27;20250;-65
2022/05/18 03:19:24;;;;;;;8.23;7.40;;;14.80;99.90;;;;;;5108436;27;20237;-65
2022/05/18 03:24:39;;;;;;;7.17;5.90;;;14.80;99.90;;;;;;5106335;27;20249;-65
2022/05/18 03:27:07;;;;;;;8.17;6.63;;;14.80;99.90;;;;;;5106476;27;20237;-65
2022/05/18 03:29:35;;;;;;;8.23;6.23;;;14.80;99.90;;;;;;5107169;27;20527;-65
2022/05/18 03:32:04;;;;;;;7.43;6.43;;;14.80;99.90;;;;;;5106871;27;20324;-64
2022/05/18 03:34:33;;;;;;;7.90;5.77;;;14.70;99.90;;;;;;5105250;27;20234;-65
2022/05/18 03:37:03;;;;;;;6.53;5.93;;;14.80;99.90;;;;;;5106586;27;20720;-65
2022/05/18 03:39:32;;;;;;;7.90;6.03;;;14.70;99.90;;;;;;5104814;27;20242;-65
2022/05/18 03:42:00;;;;;;;8.20;6.00;;;14.70;99.90;;;;;;5106059;27;20246;-65
2022/05/18 03:44:28;;;;;;;6.13;5.53;;;14.70;99.90;;;;;;5106865;27;20236;-65
2022/05/18 03:46:57;;;;;;;7.00;6.03;;;14.70;99.90;;;;;;5107864;27;20234;-65
2022/05/18 03:49:25;;;;;;;7.43;5.67;;;14.60;99.90;;;;;;5105725;27;20257;-65
2022/05/18 03:51:53;;;;;;;5.53;4.93;;;14.60;99.90;;;;;;5106210;27;20233;-65
2022/05/18 03:54:23;;;;;;;7.10;5.70;;;14.50;99.90;;;;;;5106605;27;20245;-65
2022/05/18 03:56:51;;;;;;;6.10;5.03;;;14.60;99.90;;;;;;5110629;27;20241;-65
2022/05/18 03:59:19;;;;;;;6.53;5.60;;;14.60;99.90;;;;;;5110007;27;20251;-64
2022/05/18 04:01:47;;;;;;;6.47;5.53;;;14.60;99.90;;;;;;5112072;27;20352;-65
2022/05/18 04:04:15;;;;;;;5.90;5.30;;;14.70;99.90;;;;;;5110749;27;20235;-65
2022/05/18 04:06:43;;;;;;;6.20;5.60;;;14.70;99.90;;;;;;5111836;27;20604;-65
2022/05/18 04:09:12;;;;;;;6.53;5.83;;;14.60;99.90;;;;;;5108066;27;20294;-65
2022/05/18 04:11:41;;;;;;;6.60;5.30;;;14.60;99.90;;;;;;5106870;27;20730;-64
2022/05/18 04:14:10;;;;;;;5.07;4.67;;;14.80;99.90;;;;;;5105719;27;20684;-65
2022/05/18 04:16:38;;;;;;;6.70;6.00;;;14.80;99.90;;;;;;5106669;27;20328;-65
2022/05/18 04:19:06;;;;;;;5.80;5.17;;;14.80;99.90;;;;;;5106817;27;20230;-65
2022/05/18 04:21:34;;;;;;;6.83;5.37;;;14.90;99.90;;;;;;5110013;27;20229;-64
2022/05/18 04:24:02;;;;;;;6.17;5.03;;;14.90;99.90;;;;;;5107694;27;20709;-64
2022/05/18 04:26:30;;;;;;;6.57;5.70;;;14.90;99.90;;;;;;5107510;27;20229;-65
2022/05/18 04:29:00;;;;;;;5.93;5.33;;;14.90;99.90;;;;;;5108838;27;20244;-65
2022/05/18 04:31:28;;;;;;;6.33;5.83;;;14.90;99.90;;;;;;5105200;27;20303;-65
2022/05/18 04:33:56;;;;;;;7.80;6.20;;;15.10;99.90;;;;;;5105755;27;20771;-65
2022/05/18 04:36:24;;;;;;;6.90;6.30;;;15.10;99.90;;;;;;5109105;27;20363;-65
2022/05/18 04:38:52;;;;;;;9.27;6.50;;;15.10;99.90;;;;;;5110928;27;20237;-65
2022/05/18 04:41:22;;;;;;;7.27;6.57;;;15.00;99.90;;;;;;5110152;27;20237;-65
2022/05/18 04:43:50;;;;;;;10.07;7.27;;;15.00;99.90;;;;;;5104827;27;20237;-65
2022/05/18 04:46:19;;;;;;;8.13;7.07;;;15.00;99.90;;;;;;5105136;28;20226;-65
2022/05/18 04:48:48;;;;;;;7.77;7.00;;;15.00;99.90;;;;;;5109085;27;20712;-65
2022/05/18 04:51:16;;;;;;;8.10;7.30;;;15.00;99.90;;;;;;5106726;27;20240;-65
2022/05/18 04:53:44;;;;;;;8.37;7.50;;;15.00;99.90;;;;;;5109311;27;20223;-64
2022/05/18 04:56:12;;;;;;;8.37;6.70;;;15.00;99.90;;;;;;5109582;27;20241;-65
2022/05/18 04:58:40;;;;;;;8.37;7.57;;;15.00;99.90;;;;;;5108807;27;20234;-65
2022/05/18 05:01:09;;;;;;;8.80;8.00;;;15.10;99.90;;;;;;5108627;27;20651;-65
2022/05/18 05:03:39;;;;;;;9.43;8.40;;;15.10;99.90;;;;;;5105051;27;20236;-65
2022/05/18 05:06:07;;;;;;;12.10;8.77;;;15.10;99.90;;;;;;5105583;28;20725;-65
2022/05/18 05:08:37;;;;;;;10.90;8.63;;;15.10;99.90;;;;;;5107285;27;20238;-65
2022/05/18 05:11:06;;;;;;;9.17;8.27;;;15.30;99.90;;;;;;5110856;27;20256;-65
2022/05/18 05:13:35;;;;;;;9.90;8.83;;;15.30;99.90;;;;;;5110123;28;20233;-65
2022/05/18 05:16:06;;;;;;;10.00;8.40;;;15.30;99.90;;;;;;5104939;28;20324;-65
2022/05/18 05:18:35;;;;;;;10.27;9.37;;;15.50;99.90;;;;;;5106568;28;20749;-65
2022/05/18 05:21:05;;;;;;;11.13;9.90;;;15.40;99.90;;;;;;5109178;28;20331;-65
2022/05/18 05:23:33;;;;;;;10.87;9.77;;;15.30;99.90;;;;;;5103970;28;20237;-65
2022/05/18 05:26:02;;;;;;;11.13;10.03;;;15.40;99.90;;;;;;5107450;28;20638;-65
2022/05/18 05:28:30;;;;;;;10.63;9.53;;;15.40;99.90;;;;;;5104385;28;20260;-65
2022/05/18 05:31:02;;;;;;;11.00;10.00;;;15.30;99.90;;;;;;5106234;28;20259;-65
2022/05/18 05:33:31;;;;;;;11.37;9.17;;;15.30;99.90;;;;;;5103910;28;20837;-65
2022/05/18 05:35:59;;;;;;;10.87;9.87;;;15.30;99.90;;;;;;5105413;28;20241;-65
2022/05/18 05:38:29;;;;;;;11.37;9.50;;;15.30;99.90;;;;;;5108396;28;20321;-65
2022/05/18 05:40:59;;;;;;;11.43;10.23;;;15.30;99.90;;;;;;5107560;28;20573;-65
2022/05/18 05:43:28;;;;;;;13.57;10.03;;;15.30;99.90;;;;;;5105248;28;20584;-65
2022/05/18 05:45:58;;;;;;;11.60;10.50;;;15.30;99.90;;;;;;5106525;28;20562;-65
2022/05/18 05:48:27;;;;;;;11.10;10.00;;;15.20;99.90;;;;;;5108469;28;20663;-64
2022/05/18 05:50:56;;;;;;;11.80;10.60;;;15.20;99.90;;;;;;5107846;28;20241;-65
2022/05/18 05:53:24;;;;;;;11.83;10.63;;;15.10;99.90;;;;;;5105204;28;20277;-65
2022/05/18 05:55:54;;;;;;;12.23;11.03;;;15.10;99.90;;;;;;5104677;28;20276;-65
2022/05/18 05:58:23;;;;;;;12.80;11.50;;;15.10;99.90;;;;;;5098654;28;20244;-65
2022/05/18 06:00:51;;;;;;;12.83;11.50;;;15.20;99.90;;;;;;5099500;28;20264;-65
2022/05/18 06:03:20;;;;;;;13.03;11.80;;;15.20;99.90;;;;;;5097682;28;20245;-65
2022/05/18 06:05:48;;;;;;;12.13;10.93;;;15.30;99.90;;;;;;5099393;28;20229;-65
2022/05/18 06:08:16;;;;;;;13.03;11.70;;;15.30;99.90;;;;;;5097969;28;20275;-65
2022/05/18 06:10:45;;;;;;;13.97;11.93;;;15.40;99.90;;;;;;5098787;28;20232;-65
2022/05/18 06:13:14;;;;;;;13.83;12.40;;;15.50;99.90;;;;;;5096770;28;20268;-65
2022/05/18 06:15:43;;;;;;;13.77;11.07;;;15.50;99.90;;;;;;5096951;28;20248;-65
2022/05/18 06:18:12;;;;;;;14.30;12.80;;;15.60;99.90;;;;;;5099761;28;21132;-65
2022/05/18 06:20:47;;;;;;;15.83;12.10;;;15.70;99.90;;;;;;5098612;27;20352;-65
2022/05/18 06:23:17;;;;;;;13.70;12.40;;;15.80;99.90;;;;;;5101409;27;20562;-65
2022/05/18 06:25:46;;;;;;;13.87;12.33;;;15.80;99.90;;;;;;5101598;27;20234;-65
2022/05/18 06:28:16;;;;;;;14.10;11.23;;;16.20;99.90;;;;;;5105920;27;20237;-65
2022/05/18 06:30:45;;;;;;;14.07;12.57;;;16.60;99.90;;;;;;5108119;27;20704;-65
2022/05/18 06:33:13;;;;;;;12.53;11.27;;;16.80;99.90;;;;;;5105551;27;20230;-65
2022/05/18 06:35:41;;;;;;;13.03;11.83;;;17.00;99.90;;;;;;5108929;27;20243;-65
2022/05/18 06:38:11;;;;;;;12.40;11.20;;;17.20;99.90;;;;;;5107814;27;20245;-65
2022/05/18 06:43:26;;;;;;;12.67;11.40;;;18.00;99.90;;;;;;5107936;27;20336;-66
2022/05/18 06:45:55;;;;;;;12.40;11.30;;;18.40;99.90;;;;;;5107565;27;20242;-66
2022/05/18 06:48:23;;;;;;;13.07;11.77;;;18.80;99.90;;;;;;5107661;27;20269;-66
2022/05/18 06:51:12;;;;;;;11.37;10.27;;;19.20;99.90;;;;;;5111103;27;20635;-66
2022/05/18 06:53:41;;;;;;;12.17;11.07;;;19.50;99.90;;;;;;5108613;27;20323;-65
2022/05/18 06:56:09;;;;;;;11.73;10.57;;;19.50;99.90;;;;;;5111264;27;20319;-66
2022/05/18 06:58:38;;;;;;;12.70;11.07;;;19.70;99.90;;;;;;5109361;27;20285;-66
2022/05/18 07:01:07;;;;;;;12.23;11.13;;;19.60;99.90;;;;;;5108863;27;20331;-65
2022/05/18 07:03:36;;;;;;;12.13;11.00;;;19.70;99.90;;;;;;5109130;27;21405;-66
2022/05/18 07:06:05;;;;;;;11.30;10.27;;;20.30;99.90;;;;;;5113986;27;20239;-66
2022/05/18 07:08:33;;;;;;;12.27;11.20;;;20.60;99.90;;;;;;5114299;27;20248;-65
2022/05/18 07:11:03;;;;;;;11.53;10.33;;;20.80;99.90;;;;;;5114036;27;20367;-65
2022/05/18 07:13:32;;;;;;;12.53;11.33;;;20.70;99.90;;;;;;5112563;27;20229;-65
2022/05/18 07:16:02;;;;;;;12.47;11.27;;;20.80;99.90;;;;;;5115924;27;20306;-65
2022/05/18 07:18:33;;;;;;;12.13;10.93;;;20.80;99.90;;;;;;5112720;27;21202;-65
2022/05/18 07:21:03;;;;;;;17.03;11.67;;;20.70;99.90;;;;;;5110979;27;20253;-66
2022/05/18 07:23:32;;;;;;;11.00;10.00;;;20.60;99.90;;;;;;5105606;27;20320;-65
2022/05/18 07:26:00;;;;;;;10.90;9.90;;;21.20;99.90;;;;;;5108835;27;20273;-66
2022/05/18 07:28:29;;;;;;;12.50;11.30;;;21.40;99.90;;;;;;5109419;27;20319;-66
2022/05/18 07:30:58;;;;;;;12.87;11.73;;;21.50;99.90;;;;;;5108744;27;20229;-66
2022/05/18 07:33:28;;;;;;;11.53;10.33;;;21.60;99.90;;;;;;5107726;27;20240;-66
2022/05/18 07:35:56;;;;;;;12.23;11.13;;;22.00;99.90;;;;;;5109791;27;20248;-66
2022/05/18 07:38:27;;;;;;;12.40;11.10;;;21.80;99.90;;;;;;5113246;27;20716;-66
2022/05/18 07:41:06;;;;;;;12.17;10.87;;;21.50;99.90;;;;;;5110387;27;20718;-66
2022/05/18 07:43:34;;;;;;;12.80;11.50;;;21.00;99.90;;;;;;5109637;27;20234;-66
2022/05/18 07:46:02;;;;;;;12.07;10.90;;;21.10;99.90;;;;;;5113985;27;20600;-66
2022/05/18 07:48:32;;;;;;;11.27;10.17;;;21.60;99.90;;;;;;5114770;27;20265;-66
2022/05/18 07:51:00;;;;;;;12.43;11.23;;;22.00;99.90;;;;;;5107572;27;20914;-66
2022/05/18 07:53:29;;;;;;;12.27;11.07;;;22.30;99.90;;;;;;5107968;27;20286;-66
2022/05/18 07:55:57;;;;;;;11.03;9.97;;;22.50;99.90;;;;;;5106798;27;20598;-66
2022/05/18 07:58:25;;;;;;;11.63;10.50;;;23.00;99.90;;;;;;5108863;27;20294;-66
2022/05/18 08:00:53;;;;;;;11.87;10.63;;;23.10;99.90;;;;;;5108546;27;20226;-66
2022/05/18 08:03:21;;;;;;;11.47;10.37;;;23.10;99.90;;;;;;5106464;27;20228;-66
2022/05/18 08:05:50;;;;;;;11.43;10.23;;;23.20;99.90;;;;;;5108504;27;20237;-66
2022/05/18 08:08:22;;;;;;;11.37;10.37;;;23.40;99.90;;;;;;5107669;27;21777;-66
2022/05/18 08:16:22;;;;;;;10.40;9.37;;;23.30;99.90;;;;;;5111242;27;20696;-66
2022/05/18 08:18:50;;;;;;;11.83;10.60;;;24.10;99.90;;;;;;5111863;27;20275;-65
2022/05/18 08:21:20;;;;;;;12.10;11.07;;;24.20;99.90;;;;;;5106619;27;21272;-66
2022/05/18 08:23:49;;;;;;;9.90;9.07;;;24.20;99.90;;;;;;5108080;27;21859;-66
2022/05/18 08:26:24;;;;;;;10.33;9.43;;;24.40;99.90;;;;;;5106480;27;20722;-66
2022/05/18 08:28:52;;;;;;;9.73;8.77;;;24.50;99.90;;;;;;5107616;27;20257;-66
2022/05/18 08:31:23;;;;;;;9.67;8.67;;;24.80;99.90;;;;;;5109890;27;20243;-66
2022/05/18 08:33:53;;;;;;;10.33;9.33;;;25.00;99.90;;;;;;5110918;27;20290;-66
2022/05/18 08:36:24;;;;;;;9.50;8.63;;;25.20;99.90;;;;;;5111795;27;20217;-66
2022/05/18 08:38:53;;;;;;;9.63;8.63;;;25.50;99.90;;;;;;5111981;27;20213;-66
2022/05/18 08:41:24;;;;;;;9.77;8.87;;;25.90;99.90;;;;;;5111001;27;20330;-66
2022/05/18 08:43:55;;;;;;;11.17;8.60;;;25.80;99.90;;;;;;5105383;27;20232;-66
2022/05/18 08:46:35;;;;;;;8.70;7.90;;;25.90;99.90;;;;;;5109049;27;20273;-66
2022/05/18 08:49:13;;;;;;;8.77;7.90;;;26.20;99.90;;;;;;5106594;27;20289;-67
2022/05/18 08:51:56;;;;;;;7.97;7.17;;;26.00;99.90;;;;;;5105914;27;20610;-67
2022/05/18 08:54:47;;;;;;;8.33;7.53;;;26.20;99.90;;;;;;5106008;27;20237;-67
2022/05/18 08:57:19;;;;;;;8.13;7.30;;;26.30;99.90;;;;;;5108139;27;20244;-67
2022/05/18 08:59:52;;;;;;;8.37;7.57;;;26.30;99.90;;;;;;5111181;27;20239;-67
2022/05/18 09:02:30;;;;;;;8.27;6.83;;;26.40;99.90;;;;;;5109419;27;20255;-67
2022/05/18 09:05:03;;;;;;;7.97;7.10;;;26.70;99.90;;;;;;5113114;27;20248;-67
2022/05/18 09:08:00;;;;;;;7.80;7.10;;;26.60;99.90;;;;;;5111418;27;20229;-67
2022/05/18 09:10:32;;;;;;;8.33;6.90;;;26.60;99.90;;;;;;5113538;27;20297;-67
2022/05/18 09:13:03;;;;;;;7.50;6.70;;;26.60;99.90;;;;;;5107158;28;20252;-67
2022/05/18 09:15:39;;;;;;;7.47;6.77;;;26.70;99.90;;;;;;5110777;28;20325;-67
2022/05/18 09:18:17;;;;;;;6.40;5.67;;;27.00;99.90;;;;;;5109947;28;20632;-67
2022/05/18 09:20:48;;;;;;;7.57;5.63;;;27.10;99.90;;;;;;5109088;28;20614;-67
2022/05/18 09:23:35;;;;;;;12.73;5.30;;;27.30;99.90;;;;;;5110070;28;20727;-67
2022/05/18 09:26:17;;;;;;;6.20;4.50;;;27.60;99.90;;;;;;5107473;28;20336;-67
2022/05/18 09:28:53;;;;;;;5.13;4.40;;;27.60;99.90;;;;;;5109587;28;20231;-68
2022/05/18 09:31:35;;;;;;;5.53;4.47;;;27.80;99.90;;;;;;5110986;28;20324;-67
2022/05/18 09:34:16;;;;;;;6.40;4.67;;;28.30;99.90;;;;;;5104151;28;20585;-67
2022/05/18 09:37:04;;;;;;;5.63;4.60;;;28.50;99.90;;;;;;5107005;28;20360;-67
2022/05/18 09:39:36;;;;;;;6.37;4.30;;;28.70;99.90;;;;;;5107295;28;20796;-67
2022/05/18 09:42:09;;;;;;;8.10;4.80;;;28.80;99.90;;;;;;5105052;28;20765;-67
2022/05/18 09:44:44;;;;;;;6.20;4.37;;;28.80;99.90;;;;;;5107695;28;20232;-67
2022/05/18 09:47:16;;;;;;;5.13;4.10;;;29.00;99.90;;;;;;5113553;28;20240;-67
2022/05/18 09:49:47;;;;;;;5.73;4.50;;;29.40;99.90;;;;;;5111529;28;20318;-67
2022/05/18 09:52:20;;;;;;;6.60;4.00;;;29.60;99.90;;;;;;5109152;28;20646;-67
2022/05/18 09:54:53;;;;;;;6.60;4.40;;;29.60;99.90;;;;;;5110188;28;20788;-67
2022/05/18 09:57:25;;;;;;;4.47;4.07;;;29.30;99.90;;;;;;5113438;27;20241;-67
2022/05/18 09:59:56;;;;;;;9.17;5.17;;;29.30;99.90;;;;;;5114989;27;20264;-67
2022/05/18 10:08:00;;;;;;;5.30;3.77;;;29.30;99.90;;;;;;5108073;27;20232;-67
2022/05/18 10:10:32;;;;;;;4.50;4.10;;;29.60;99.90;;;;;;5106639;27;20221;-67
2022/05/18 10:13:06;;;;;;;4.47;4.07;;;29.50;99.90;;;;;;5110575;27;20672;-67
2022/05/18 10:16:03;;;;;;;6.90;4.13;;;29.80;99.90;;;;;;5113147;27;20241;-67
2022/05/18 10:18:41;;;;;;;6.70;4.40;;;29.90;99.90;;;;;;5113040;27;21476;-67
2022/05/18 10:21:30;;;;;;;5.53;4.07;;;29.80;99.90;;;;;;5105468;27;20294;-67
2022/05/18 10:24:02;;;;;;;5.73;3.93;;;29.90;99.90;;;;;;5106536;27;20358;-67
2022/05/18 10:26:35;;;;;;;5.80;3.70;;;29.90;99.90;;;;;;5108217;27;20262;-68
2022/05/18 10:29:07;;;;;;;4.00;3.50;;;30.10;99.90;;;;;;5106873;27;20770;-68
2022/05/18 10:31:37;;;;;;;5.10;4.00;;;30.20;99.90;;;;;;5108718;27;20240;-68
2022/05/18 10:34:33;;;;;;;5.37;3.90;;;30.20;99.90;;;;;;5106375;27;20240;-68
2022/05/18 10:37:03;;;;;;;4.07;3.67;;;30.10;99.90;;;;;;5104722;27;20367;-68
2022/05/18 10:39:39;;;;;;;4.57;4.17;;;30.10;99.90;;;;;;5107353;27;20768;-68
2022/05/18 10:42:20;;;;;;;5.20;3.60;;;30.50;99.90;;;;;;5106820;27;20233;-68
2022/05/18 10:44:48;;;;;;;9.67;4.17;;;30.50;99.90;;;;;;5105375;27;20658;-68
2022/05/18 10:47:26;;;;;;;5.17;3.93;;;30.70;99.90;;;;;;5107718;27;20242;-68
2022/05/18 10:50:11;;;;;;;8.53;4.03;;;30.70;99.90;;;;;;5109966;27;20233;-68
2022/05/18 10:52:39;;;;;;;5.30;3.73;;;30.40;99.90;;;;;;5105183;27;20266;-68
2022/05/18 10:55:16;;;;;;;4.80;3.70;;;30.40;99.90;;;;;;5112585;27;20231;-68
2022/05/18 10:57:55;;;;;;;5.17;3.43;;;30.70;99.90;;;;;;5109349;27;20288;-68
2022/05/18 11:00:28;;;;;;;7.30;3.63;;;31.00;99.90;;;;;;5108467;27;20237;-68
2022/05/18 11:03:01;;;;;;;4.13;3.63;;;31.10;99.90;;;;;;5105521;27;20286;-68
2022/05/18 11:05:38;;;;;;;6.37;4.10;;;31.00;99.90;;;;;;5107104;27;20284;-68
2022/05/18 11:08:11;;;;;;;5.00;3.60;;;31.20;99.90;;;;;;5107219;27;20318;-68
2022/05/18 11:10:48;;;;;;;4.90;3.07;;;31.40;99.90;;;;;;5111345;27;20744;-68
2022/05/18 11:13:23;;;;;;;3.73;2.97;;;31.60;99.90;;;;;;5110345;27;20311;-68
2022/05/18 11:16:01;;;;;;;5.63;3.27;;;31.40;99.90;;;;;;5111068;27;20229;-68
2022/05/18 11:18:38;;;;;;;4.50;3.40;;;31.60;99.90;;;;;;5112314;27;20233;-69
2022/05/18 11:21:15;;;;;;;7.13;3.33;;;31.70;99.90;;;;;;5114490;27;20255;-68
2022/05/18 11:23:50;;;;;;;4.37;3.30;;;31.60;99.90;;;;;;5110626;27;20358;-68
2022/05/18 11:26:32;;;;;;;4.33;3.27;;;31.90;99.90;;;;;;5113751;27;20372;-68
2022/05/18 11:29:25;;;;;;;5.27;3.30;;;32.00;99.90;;;;;;5113241;27;20244;-69
2022/05/18 11:32:15;;;;;;;5.43;3.57;;;32.00;99.90;;;;;;5111698;27;20240;-69
2022/05/18 11:34:53;;;;;;;4.33;3.30;;;32.00;99.90;;;;;;5109882;27;20238;-66
2022/05/18 11:37:41;;;;;;;4.07;3.47;;;32.00;99.90;;;;;;5111916;27;20729;-66
2022/05/18 11:40:23;;;;;;;5.17;3.37;;;31.90;99.90;;;;;;5116031;27;20275;-66
2022/05/18 11:43:01;;;;;;;3.93;3.40;;;31.60;99.90;;;;;;5110322;27;20236;-65
2022/05/18 11:45:42;;;;;;;4.73;3.20;;;31.60;99.90;;;;;;5113100;27;20232;-65
2022/05/18 11:48:21;;;;;;;4.57;3.70;;;31.70;99.90;;;;;;5107731;27;20259;-66
2022/05/18 11:51:05;;;;;;;7.07;3.13;;;31.50;99.90;;;;;;5103805;27;20636;-66
2022/05/18 11:53:44;;;;;;;7.77;3.80;;;30.70;99.90;;;;;;5098424;27;20240;-66
2022/05/18 11:56:30;;;;;;;5.20;3.70;;;30.20;99.90;;;;;;5100751;27;20774;-65
2022/05/18 11:59:28;;;;;;;6.73;3.50;;;30.50;99.90;;;;;;5098793;27;20246;-66
2022/05/18 12:02:14;;;;;;;4.53;3.50;;;30.60;99.90;;;;;;5111813;27;20253;-66
2022/05/18 12:05:06;;;;;;;5.47;3.33;;;30.60;99.90;;;;;;5109575;27;20256;-66
2022/05/18 12:07:57;;;;;;;6.43;3.90;;;30.70;99.90;;;;;;5108326;27;20265;-66
2022/05/18 12:10:29;;;;;;;5.37;3.50;;;30.80;99.90;;;;;;5109369;27;20327;-66
2022/05/18 12:13:04;;;;;;;4.47;3.00;;;30.80;99.90;;;;;;5109847;27;20240;-66
2022/05/18 12:15:43;;;;;;;5.20;3.50;;;30.90;99.90;;;;;;5112264;27;20233;-66
2022/05/18 12:18:17;;;;;;;5.07;3.30;;;31.00;99.90;;;;;;5109720;27;20243;-66
2022/05/18 12:20:50;;;;;;;4.57;3.53;;;30.80;99.90;;;;;;5110703;27;20296;-66
2022/05/18 12:23:27;;;;;;;7.10;3.77;;;30.90;99.90;;;;;;5108167;27;20645;-66
2022/05/18 12:25:55;;;;;;;5.73;3.77;;;30.70;99.90;;;;;;5109299;27;20782;-68
2022/05/18 12:28:24;;;;;;;4.13;3.30;;;30.50;99.90;;;;;;5106267;27;20260;-68
2022/05/18 12:30:53;;;;;;;4.57;3.30;;;30.30;99.90;;;;;;5108377;27;20247;-68
2022/05/18 12:33:26;;;;;;;6.33;3.33;;;30.40;99.90;;;;;;5105102;27;20245;-69
2022/05/18 12:36:03;;;;;;;3.20;2.40;;;30.20;99.90;;;;;;5108905;27;20278;-69
2022/05/18 12:38:36;;;;;;;4.13;2.53;;;30.20;99.90;;;;;;5106595;27;20239;-69
2022/05/18 12:41:07;;;;;;;5.30;2.60;;;30.20;99.90;;;;;;5108307;27;20913;-69
2022/05/18 12:43:39;;;;;;;3.47;2.60;;;30.30;99.90;;;;;;5106204;27;20244;-68
2022/05/18 12:46:21;;;;;;;5.20;2.40;;;30.20;99.90;;;;;;5108133;27;20238;-69
2022/05/18 12:48:59;;;;;;;4.97;2.20;;;30.30;99.90;;;;;;5111943;27;20238;-69
2022/05/18 12:51:40;;;;;;;3.03;2.20;;;30.30;99.90;;;;;;5112919;27;20765;-69
2022/05/18 12:54:24;;;;;;;2.67;2.03;;;30.40;99.90;;;;;;5109382;27;20242;-69
2022/05/18 12:57:13;;;;;;;2.50;2.30;;;30.60;99.90;;;;;;5107286;27;20278;-69
2022/05/18 13:00:08;;;;;;;4.33;2.30;;;30.40;99.90;;;;;;5106975;27;20275;-68
2022/05/18 13:02:42;;;;;;;6.80;2.20;;;30.30;99.90;;;;;;5106382;28;20257;-69
2022/05/18 13:05:34;;;;;;;4.10;2.17;;;30.20;99.90;;;;;;5107130;27;20256;-70
2022/05/18 13:08:12;;;;;;;3.87;1.90;;;30.40;99.90;;;;;;5103818;27;20266;-67
2022/05/18 13:10:40;;;;;;;2.90;1.80;;;30.50;99.90;;;;;;5104573;27;20241;-67
2022/05/18 13:13:20;;;;;;;2.73;1.97;;;30.50;99.90;;;;;;5103892;27;20601;-67
2022/05/18 13:15:55;;;;;;;3.83;2.00;;;30.30;99.90;;;;;;5102529;28;20234;-67
2022/05/18 13:18:33;;;;;;;2.33;2.00;;;30.30;99.90;;;;;;5104614;28;20234;-67
2022/05/18 13:21:23;;;;;;;3.90;2.00;;;30.20;99.90;;;;;;5103101;28;20241;-67
2022/05/18 13:23:54;;;;;;;2.90;1.70;;;30.10;99.90;;;;;;5102334;28;20230;-67
2022/05/18 13:26:31;;;;;;;2.93;1.70;;;30.00;99.90;;;;;;5102612;28;21099;-67